createdAt,value
2018-11-21T00:02:16.797Z,14.28
2018-11-21T00:04:43.779Z,13.75
2018-11-21T00:07:10.972Z,15.93
2018-11-21T00:09:38.378Z,14.35
2018-11-21T00:12:05.659Z,14.98
2018-11-21T00:14:33.207Z,15.85
2018-11-21T00:17:00.213Z,16.65
2018-11-21T00:19:27.767Z,16.77
2018-11-21T00:21:54.926Z,17.45
2018-11-21T00:24:22.061Z,14.70
2018-11-21T00:26:49.445Z,16.10
2018-11-21T00:29:16.608Z,16.50
2018-11-21T00:31:44.290Z,13.80
2018-11-21T00:34:11.938Z,14.25
2018-11-21T00:36:42.124Z,13.28
2018-11-21T00:39:10.544Z,13.90
2018-11-21T00:41:37.768Z,14.95
2018-11-21T00:44:05.486Z,13.25
2018-11-21T00:46:32.631Z,16.77
2018-11-21T00:49:00.433Z,12.07
2018-11-21T00:51:27.543Z,12.80
2018-11-21T00:53:54.447Z,11.90
2018-11-21T00:56:22.140Z,11.55
2018-11-21T00:58:49.483Z,12.78
2018-11-21T01:01:16.811Z,12.40
2018-11-21T01:03:43.995Z,14.40
2018-11-21T01:06:10.999Z,12.07
2018-11-21T01:08:38.573Z,13.15
2018-11-21T01:11:05.929Z,12.05
2018-11-21T01:13:33.265Z,12.00
2018-11-21T01:16:00.191Z,12.98
2018-11-21T01:18:27.134Z,13.88
2018-11-21T01:20:54.662Z,13.93
2018-11-21T01:23:22.338Z,14.70
2018-11-21T01:25:49.282Z,14.05
2018-11-21T01:28:16.921Z,14.45
2018-11-21T01:30:44.078Z,14.78
2018-11-21T01:33:15.842Z,13.50
2018-11-21T01:35:42.752Z,14.80
2018-11-21T01:38:12.785Z,14.18
2018-11-21T01:40:39.642Z,14.68
2018-11-21T01:43:06.784Z,13.95
2018-11-21T01:45:33.770Z,13.85
2018-11-21T01:48:00.707Z,13.60
2018-11-21T01:50:28.299Z,13.35
2018-11-21T01:52:55.467Z,13.45
2018-11-21T01:55:22.340Z,13.58
2018-11-21T01:57:51.890Z,13.03
2018-11-21T02:00:19.427Z,13.00
2018-11-21T02:02:46.621Z,13.15
2018-11-21T02:05:13.820Z,12.03
2018-11-21T02:07:41.256Z,11.85
2018-11-21T02:10:08.551Z,12.40
2018-11-21T02:12:35.635Z,12.70
2018-11-21T02:15:02.465Z,12.15
2018-11-21T02:17:29.595Z,11.88
2018-11-21T02:19:56.874Z,13.53
2018-11-21T02:22:23.857Z,10.90
2018-11-21T02:24:56.342Z,12.98
2018-11-21T02:27:23.897Z,12.82
2018-11-21T02:29:50.930Z,11.30
2018-11-21T02:32:17.802Z,12.25
2018-11-21T02:34:45.013Z,11.05
2018-11-21T02:37:11.828Z,11.57
2018-11-21T02:39:39.019Z,11.18
2018-11-21T02:42:05.905Z,11.83
2018-11-21T02:44:33.112Z,12.50
2018-11-21T02:47:00.332Z,11.48
2018-11-21T02:49:29.892Z,12.75
2018-11-21T02:51:57.107Z,11.50
2018-11-21T02:54:24.002Z,12.00
2018-11-21T02:57:12.835Z,11.53
2018-11-21T02:59:40.363Z,12.93
2018-11-21T03:02:10.128Z,11.33
2018-11-21T03:04:37.791Z,12.18
2018-11-21T03:07:05.149Z,11.15
2018-11-21T03:09:32.085Z,11.83
2018-11-21T03:11:59.309Z,11.57
2018-11-21T03:14:29.437Z,11.48
2018-11-21T03:16:59.237Z,11.22
2018-11-21T03:19:26.441Z,13.35
2018-11-21T03:21:56.836Z,12.03
2018-11-21T03:24:23.683Z,11.50
2018-11-21T03:26:51.157Z,12.18
2018-11-21T03:29:17.953Z,13.00
2018-11-21T03:31:44.898Z,11.18
2018-11-21T03:34:12.389Z,9.85
2018-11-21T03:36:46.400Z,12.10
2018-11-21T03:39:13.746Z,11.10
2018-11-21T03:41:40.566Z,11.50
2018-11-21T03:44:14.591Z,11.33
2018-11-21T03:46:46.268Z,11.05
2018-11-21T03:49:14.963Z,11.78
2018-11-21T03:51:42.344Z,11.60
2018-11-21T03:54:09.812Z,13.18
2018-11-21T03:56:37.983Z,13.58
2018-11-21T03:59:05.175Z,10.45
2018-11-21T04:01:33.439Z,12.98
2018-11-21T04:04:09.168Z,12.43
2018-11-21T04:06:36.184Z,11.57
2018-11-21T04:09:06.360Z,11.45
2018-11-21T04:11:33.352Z,11.63
2018-11-21T04:14:00.828Z,12.25
2018-11-21T04:16:27.841Z,10.82
2018-11-21T04:18:55.428Z,11.70
2018-11-21T04:21:22.645Z,12.33
2018-11-21T04:23:49.866Z,11.20
2018-11-21T04:26:17.270Z,11.60
2018-11-21T04:28:44.105Z,11.50
2018-11-21T04:31:11.889Z,12.18
2018-11-21T04:33:39.183Z,12.30
2018-11-21T04:36:06.119Z,13.83
2018-11-21T04:38:32.990Z,14.85
2018-11-21T04:41:00.127Z,15.08
2018-11-21T04:43:26.989Z,15.85
2018-11-21T04:45:54.973Z,16.90
2018-11-21T04:48:22.508Z,13.60
2018-11-21T04:50:49.697Z,12.25
2018-11-21T04:53:16.609Z,13.08
2018-11-21T04:55:43.856Z,14.80
2018-11-21T04:58:10.734Z,13.45
2018-11-21T05:00:37.953Z,13.13
2018-11-21T05:03:05.934Z,12.40
2018-11-21T05:05:33.172Z,13.25
2018-11-21T05:08:00.794Z,12.05
2018-11-21T05:10:28.440Z,13.90
2018-11-21T05:12:55.683Z,12.55
2018-11-21T05:15:22.585Z,12.47
2018-11-21T05:17:50.158Z,11.70
2018-11-21T05:20:17.290Z,11.28
2018-11-21T05:22:44.966Z,12.15
2018-11-21T05:25:12.166Z,12.25
2018-11-21T05:27:39.327Z,13.62
2018-11-21T05:30:10.543Z,11.10
2018-11-21T05:32:37.578Z,11.53
2018-11-21T05:35:05.142Z,11.70
2018-11-21T05:37:32.785Z,11.03
2018-11-21T05:39:59.761Z,11.93
2018-11-21T05:42:26.997Z,10.50
2018-11-21T05:44:54.890Z,11.22
2018-11-21T05:47:24.243Z,10.88
2018-11-21T05:49:51.172Z,13.28
2018-11-21T05:52:18.082Z,12.88
2018-11-21T05:54:44.978Z,12.30
2018-11-21T05:57:12.176Z,10.65
2018-11-21T05:59:39.416Z,11.35
2018-11-21T06:02:06.260Z,12.10
2018-11-21T06:04:33.557Z,11.80
2018-11-21T06:07:06.552Z,11.20
2018-11-21T06:09:33.332Z,11.08
2018-11-21T06:12:04.258Z,10.90
2018-11-21T06:14:28.056Z,9.98
2018-11-21T06:16:55.283Z,10.72
2018-11-21T06:19:22.801Z,11.95
2018-11-21T06:21:50.816Z,11.68
2018-11-21T06:24:18.291Z,10.35
2018-11-21T06:26:53.447Z,11.80
2018-11-21T06:29:20.287Z,12.28
2018-11-21T06:31:50.336Z,11.03
2018-11-21T06:34:19.984Z,11.30
2018-11-21T06:36:46.833Z,13.40
2018-11-21T06:39:14.365Z,13.25
2018-11-21T06:41:41.537Z,22.82
2018-11-21T06:44:09.022Z,30.68
2018-11-21T06:46:36.212Z,17.40
2018-11-21T06:49:03.436Z,11.38
2018-11-21T06:51:35.191Z,12.43
2018-11-21T06:53:57.799Z,13.72
2018-11-21T06:56:25.041Z,13.13
2018-11-21T06:58:55.090Z,13.60
2018-11-21T07:01:19.878Z,13.05
2018-11-21T07:03:46.946Z,12.82
2018-11-21T07:06:14.201Z,13.45
2018-11-21T07:08:41.149Z,12.28
2018-11-21T07:11:08.721Z,13.70
2018-11-21T07:13:35.640Z,13.43
2018-11-21T07:16:02.927Z,12.23
2018-11-21T07:18:29.797Z,12.60
2018-11-21T07:20:57.128Z,16.37
2018-11-21T07:23:24.646Z,16.52
2018-11-21T07:25:51.798Z,19.95
2018-11-21T07:28:19.345Z,21.42
2018-11-21T07:30:51.392Z,18.70
2018-11-21T07:33:25.904Z,17.85
2018-11-21T07:35:52.941Z,16.10
2018-11-21T07:38:19.865Z,15.85
2018-11-21T07:40:46.678Z,17.77
2018-11-21T07:43:14.239Z,19.12
2018-11-21T07:45:41.201Z,17.82
2018-11-21T07:48:08.465Z,16.55
2018-11-21T07:50:35.711Z,19.67
2018-11-21T07:53:02.626Z,23.75
2018-11-21T07:55:29.895Z,21.05
2018-11-21T07:57:59.336Z,19.92
2018-11-21T08:01:25.009Z,19.85
2018-11-21T08:03:56.569Z,18.40
2018-11-21T08:09:20.687Z,18.55
2018-11-21T08:12:13.445Z,18.52
2018-11-21T08:14:55.946Z,18.75
2018-11-21T08:17:45.670Z,19.67
2018-11-21T08:20:32.160Z,18.48
2018-11-21T08:23:13.369Z,17.65
2018-11-21T08:26:00.213Z,17.65
2018-11-21T08:28:28.965Z,15.83
2018-11-21T08:30:56.821Z,17.60
2018-11-21T08:33:24.071Z,18.05
2018-11-21T08:35:50.983Z,16.62
2018-11-21T08:38:17.994Z,17.48
2018-11-21T08:40:45.160Z,17.05
2018-11-21T08:43:12.312Z,18.77
2018-11-21T08:45:39.610Z,18.23
2018-11-21T08:48:06.764Z,19.75
2018-11-21T08:50:34.138Z,19.90
2018-11-21T08:53:01.478Z,17.30
2018-11-21T08:55:28.685Z,17.87
2018-11-21T08:57:55.553Z,17.57
2018-11-21T09:00:22.853Z,17.30
2018-11-21T09:02:50.214Z,16.75
2018-11-21T09:05:17.404Z,18.80
2018-11-21T09:07:44.615Z,17.20
2018-11-21T09:10:12.402Z,20.00
2018-11-21T09:12:39.667Z,18.62
2018-11-21T09:15:08.665Z,17.35
2018-11-21T09:17:37.106Z,17.70
2018-11-21T09:20:04.210Z,17.90
2018-11-21T09:22:31.348Z,18.12
2018-11-21T09:24:58.276Z,17.48
2018-11-21T09:27:25.391Z,18.12
2018-11-21T09:29:52.419Z,18.75
2018-11-21T09:32:19.947Z,19.15
2018-11-21T09:34:47.269Z,17.80
2018-11-21T09:37:14.075Z,18.98
2018-11-21T09:39:41.296Z,18.80
2018-11-21T09:42:08.802Z,20.52
2018-11-21T09:44:35.678Z,22.60
2018-11-21T09:47:03.106Z,23.02
2018-11-21T09:49:30.079Z,23.47
2018-11-21T09:51:57.791Z,21.80
2018-11-21T09:54:24.593Z,24.90
2018-11-21T09:56:51.404Z,23.05
2018-11-21T09:59:18.327Z,22.77
2018-11-21T10:02:23.178Z,21.45
2018-11-21T10:04:49.607Z,20.55
2018-11-21T10:07:16.438Z,21.40
2018-11-21T10:09:45.113Z,21.48
2018-11-21T10:12:12.354Z,23.90
2018-11-21T10:14:39.881Z,21.55
2018-11-21T10:17:06.991Z,24.52
2018-11-21T10:19:41.608Z,22.80
2018-11-21T10:22:12.775Z,23.45
2018-11-21T10:24:40.779Z,21.15
2018-11-21T10:27:08.004Z,24.47
2018-11-21T10:29:35.453Z,23.60
2018-11-21T10:32:02.743Z,24.27
2018-11-21T10:34:29.942Z,17.75
2018-11-21T10:36:57.133Z,23.67
2018-11-21T10:39:24.316Z,24.00
2018-11-21T10:41:51.135Z,24.43
2018-11-21T10:44:18.350Z,22.87
2018-11-21T10:46:45.561Z,22.90
2018-11-21T10:49:14.803Z,21.75
2018-11-21T10:51:42.386Z,21.45
2018-11-21T10:54:09.562Z,21.62
2018-11-21T10:56:36.495Z,20.68
2018-11-21T10:59:03.491Z,21.35
2018-11-21T11:01:48.480Z,20.17
2018-11-21T11:04:42.045Z,20.65
2018-11-21T11:07:39.640Z,19.55
2018-11-21T11:10:25.689Z,20.50
2018-11-21T11:13:11.631Z,19.20
2018-11-21T11:16:00.593Z,18.32
2018-11-21T11:18:45.972Z,21.73
2018-11-21T11:21:31.995Z,23.57
2018-11-21T11:24:18.498Z,21.55
2018-11-21T11:27:13.537Z,23.02
2018-11-21T11:30:08.652Z,22.70
2018-11-21T11:32:57.366Z,21.48
2018-11-21T11:35:52.689Z,20.45
2018-11-21T11:38:45.721Z,21.77
2018-11-21T11:41:32.121Z,20.90
2018-11-21T11:44:18.214Z,19.82
2018-11-21T11:47:17.272Z,20.65
2018-11-21T11:50:02.598Z,17.05
2018-11-21T11:52:55.218Z,20.95
2018-11-21T11:55:29.064Z,22.90
2018-11-21T11:58:23.699Z,22.27
2018-11-21T12:01:22.599Z,20.72
2018-11-21T12:04:12.825Z,21.52
2018-11-21T12:06:57.812Z,19.92
2018-11-21T12:09:47.232Z,19.45
2018-11-21T12:12:40.168Z,17.90
2018-11-21T12:15:38.327Z,19.20
2018-11-21T12:18:23.770Z,18.52
2018-11-21T12:21:09.135Z,18.20
2018-11-21T12:23:49.944Z,18.30
2018-11-21T12:26:42.543Z,19.60
2018-11-21T12:29:31.373Z,19.23
2018-11-21T12:32:30.194Z,19.27
2018-11-21T12:35:32.006Z,19.42
2018-11-21T12:38:20.154Z,17.00
2018-11-21T12:41:21.616Z,19.05
2018-11-21T12:44:07.165Z,19.10
2018-11-21T12:47:06.497Z,17.92
2018-11-21T12:50:04.848Z,19.70
2018-11-21T12:53:04.192Z,20.35
2018-11-21T12:55:44.519Z,19.05
2018-11-21T12:58:36.854Z,20.08
2018-11-21T13:01:22.474Z,18.90
2018-11-21T13:04:17.975Z,18.37
2018-11-21T13:07:10.198Z,18.48
2018-11-21T13:10:00.525Z,18.65
2018-11-21T13:12:54.559Z,20.32
2018-11-21T13:15:43.421Z,18.32
2018-11-21T13:18:25.432Z,18.15
2018-11-21T13:21:18.769Z,17.25
2018-11-21T13:24:07.416Z,16.32
2018-11-21T13:26:54.035Z,17.52
2018-11-21T13:29:43.639Z,17.17
2018-11-21T13:32:30.645Z,17.40
2018-11-21T13:35:12.449Z,18.12
2018-11-21T13:38:23.263Z,17.23
2018-11-21T13:41:07.894Z,18.20
2018-11-21T13:43:53.682Z,19.25
2018-11-21T13:46:46.146Z,19.92
2018-11-21T13:49:39.509Z,19.67
2018-11-21T13:52:19.355Z,20.77
2018-11-21T13:54:49.863Z,17.50
2018-11-21T13:57:20.835Z,18.85
2018-11-21T13:59:48.050Z,19.17
2018-11-21T14:02:15.199Z,20.65
2018-11-21T14:04:42.364Z,19.37
2018-11-21T14:07:09.605Z,19.90
2018-11-21T14:09:37.331Z,20.80
2018-11-21T14:12:04.327Z,21.30
2018-11-21T14:14:31.212Z,19.35
2018-11-21T14:16:58.316Z,18.95
2018-11-21T14:19:26.127Z,18.85
2018-11-21T14:21:55.939Z,21.20
2018-11-21T14:24:20.607Z,21.62
2018-11-21T14:26:47.498Z,20.92
2018-11-21T14:29:14.649Z,21.48
2018-11-21T14:31:41.552Z,24.32
2018-11-21T14:34:08.442Z,22.07
2018-11-21T14:36:35.352Z,22.55
2018-11-21T14:39:05.621Z,24.63
2018-11-21T14:41:33.064Z,23.73
2018-11-21T14:43:59.987Z,21.33
2018-11-21T14:46:27.502Z,22.50
2018-11-21T14:48:54.770Z,19.35
2018-11-21T14:51:21.638Z,22.15
2018-11-21T14:53:48.852Z,20.77
2018-11-21T14:56:16.380Z,22.82
2018-11-21T14:58:43.460Z,20.70
2018-11-21T15:01:10.321Z,18.30
2018-11-21T15:03:37.538Z,20.15
2018-11-21T15:06:04.891Z,22.52
2018-11-21T15:08:32.086Z,19.77
2018-11-21T15:10:59.354Z,21.20
2018-11-21T15:13:26.543Z,20.77
2018-11-21T15:15:53.424Z,20.08
2018-11-21T15:18:21.111Z,19.17
2018-11-21T15:20:48.271Z,20.60
2018-11-21T15:23:16.388Z,16.87
2018-11-21T15:25:43.289Z,19.82
2018-11-21T15:28:10.460Z,18.65
2018-11-21T15:30:37.333Z,17.92
2018-11-21T15:33:05.005Z,18.77
2018-11-21T15:35:32.171Z,18.57
2018-11-21T15:37:59.458Z,15.78
2018-11-21T15:40:26.633Z,17.62
2018-11-21T15:42:53.517Z,15.60
2018-11-21T15:45:21.702Z,18.73
2018-11-21T15:47:53.288Z,19.02
2018-11-21T15:50:23.696Z,17.35
2018-11-21T15:52:53.091Z,17.52
2018-11-21T15:55:20.853Z,18.37
2018-11-21T15:57:51.202Z,16.75
2018-11-21T16:00:20.742Z,18.45
2018-11-21T16:02:49.746Z,18.32
2018-11-21T16:05:17.955Z,17.65
2018-11-21T16:07:45.145Z,18.75
2018-11-21T16:10:19.856Z,20.10
2018-11-21T16:12:46.820Z,16.42
2018-11-21T16:15:16.244Z,18.15
2018-11-21T16:17:44.569Z,17.85
2018-11-21T16:20:12.815Z,17.85
2018-11-21T16:22:39.675Z,17.85
2018-11-21T16:25:08.041Z,17.40
2018-11-21T16:27:34.919Z,19.32
2018-11-21T16:30:02.168Z,18.30
2018-11-21T16:32:29.023Z,18.90
2018-11-21T16:34:55.850Z,19.52
2018-11-21T16:37:23.055Z,18.12
2018-11-21T16:39:49.878Z,18.10
2018-11-21T16:42:16.814Z,19.12
2018-11-21T16:44:44.609Z,17.82
2018-11-21T16:47:13.611Z,16.62
2018-11-21T16:49:40.853Z,18.48
2018-11-21T16:52:08.433Z,17.48
2018-11-21T16:54:36.076Z,16.90
2018-11-21T16:57:02.905Z,18.75
2018-11-21T16:59:32.648Z,17.20
2018-11-21T17:01:59.796Z,17.98
2018-11-21T17:04:27.332Z,18.05
2018-11-21T17:06:54.574Z,16.73
2018-11-21T17:09:22.129Z,17.40
2018-11-21T17:11:49.052Z,18.57
2018-11-21T17:14:18.349Z,18.17
2018-11-21T17:16:45.542Z,17.82
2018-11-21T17:19:12.602Z,19.05
2018-11-21T17:21:39.489Z,18.62
2018-11-21T17:24:06.351Z,14.73
2018-11-21T17:26:33.237Z,16.32
2018-11-21T17:29:00.061Z,20.08
2018-11-21T17:31:27.589Z,17.62
2018-11-21T17:33:54.524Z,17.73
2018-11-21T17:36:21.412Z,18.92
2018-11-21T17:38:48.610Z,16.87
2018-11-21T17:41:15.480Z,18.85
2018-11-21T17:43:42.482Z,19.42
2018-11-21T17:46:09.667Z,19.42
2018-11-21T17:48:36.549Z,14.93
2018-11-21T17:51:03.767Z,13.15
2018-11-21T17:53:30.750Z,17.92
2018-11-21T17:55:58.740Z,18.98
2018-11-21T17:58:25.800Z,19.42
2018-11-21T18:00:52.692Z,21.20
2018-11-21T18:03:19.544Z,19.70
2018-11-21T18:05:46.876Z,19.20
2018-11-21T18:08:14.136Z,20.23
2018-11-21T18:10:41.298Z,21.00
2018-11-21T18:13:08.246Z,18.82
2018-11-21T18:15:35.434Z,18.30
2018-11-21T18:18:02.614Z,19.23
2018-11-21T18:20:29.780Z,19.45
2018-11-21T18:22:56.931Z,19.10
2018-11-21T18:25:28.624Z,20.62
2018-11-21T18:27:56.189Z,17.77
2018-11-21T18:30:23.945Z,19.05
2018-11-21T18:32:51.504Z,20.15
2018-11-21T18:35:19.782Z,16.80
2018-11-21T18:37:47.141Z,17.42
2018-11-21T18:40:15.517Z,15.98
2018-11-21T18:42:43.345Z,18.55
2018-11-21T18:45:24.925Z,17.75
2018-11-21T18:47:52.211Z,15.80
2018-11-21T18:50:19.595Z,16.65
2018-11-21T18:52:52.131Z,16.20
2018-11-21T18:55:21.250Z,19.92
2018-11-21T18:58:45.798Z,16.45
2018-11-21T19:01:13.366Z,17.48
2018-11-21T19:03:41.017Z,16.90
2018-11-21T19:06:08.182Z,16.97
2018-11-21T19:08:35.062Z,17.55
2018-11-21T19:11:01.959Z,14.90
2018-11-21T19:13:29.383Z,15.85
2018-11-21T19:15:56.648Z,15.78
2018-11-21T19:18:23.778Z,15.30
2018-11-21T19:20:51.271Z,16.55
2018-11-21T19:23:18.216Z,15.72
2018-11-21T19:25:45.293Z,16.02
2018-11-21T19:28:11.890Z,16.48
2018-11-21T19:30:39.388Z,15.00
2018-11-21T19:33:06.316Z,17.45
2018-11-21T19:35:33.768Z,14.53
2018-11-21T19:38:00.691Z,14.50
2018-11-21T19:40:27.563Z,16.20
2018-11-21T19:42:54.418Z,16.10
2018-11-21T19:45:21.278Z,16.02
2018-11-21T19:47:48.672Z,16.05
2018-11-21T19:50:16.590Z,16.32
2018-11-21T19:52:44.730Z,15.65
2018-11-21T19:55:13.538Z,14.50
2018-11-21T19:57:45.116Z,15.58
2018-11-21T20:00:17.777Z,14.83
2018-11-21T20:02:45.488Z,15.20
2018-11-21T20:05:12.845Z,14.33
2018-11-21T20:07:43.033Z,15.55
2018-11-21T20:10:14.463Z,14.70
2018-11-21T20:12:41.840Z,16.50
2018-11-21T20:15:11.542Z,14.10
2018-11-21T20:17:46.679Z,14.35
2018-11-21T20:20:17.580Z,14.87
2018-11-21T20:22:44.863Z,14.63
2018-11-21T20:25:13.896Z,18.15
2018-11-21T20:27:41.147Z,13.93
2018-11-21T20:30:10.184Z,15.85
2018-11-21T20:32:37.034Z,14.85
2018-11-21T20:35:07.466Z,16.40
2018-11-21T20:37:31.006Z,14.73
2018-11-21T20:39:58.258Z,13.83
2018-11-21T20:42:25.162Z,13.98
2018-11-21T20:44:52.447Z,14.80
2018-11-21T20:47:19.671Z,15.93
2018-11-21T20:49:46.895Z,12.63
2018-11-21T20:52:14.158Z,15.23
2018-11-21T20:54:41.473Z,13.85
2018-11-21T20:57:08.638Z,13.95
2018-11-21T20:59:35.872Z,14.40
2018-11-21T21:02:03.641Z,16.45
2018-11-21T21:04:30.871Z,16.17
2018-11-21T21:06:57.779Z,16.52
2018-11-21T21:09:24.936Z,14.33
2018-11-21T21:11:58.485Z,12.28
2018-11-21T21:14:25.455Z,15.03
2018-11-21T21:16:52.563Z,16.05
2018-11-21T21:19:20.685Z,14.50
2018-11-21T21:21:47.469Z,15.43
2018-11-21T21:24:14.838Z,16.00
2018-11-21T21:26:41.818Z,15.48
2018-11-21T21:29:09.057Z,15.40
2018-11-21T21:31:35.885Z,15.30
2018-11-21T21:34:03.246Z,15.70
2018-11-21T21:36:30.436Z,15.38
2018-11-21T21:38:57.373Z,15.53
2018-11-21T21:41:24.318Z,15.18
2018-11-21T21:43:51.627Z,13.62
2018-11-21T21:46:18.542Z,13.88
2018-11-21T21:48:45.727Z,13.50
2018-11-21T21:51:13.047Z,15.40
2018-11-21T21:53:39.957Z,14.83
2018-11-21T21:56:07.139Z,14.83
2018-11-21T21:58:34.339Z,14.10
2018-11-21T22:01:01.328Z,14.85
2018-11-21T22:03:28.142Z,13.93
2018-11-21T22:05:55.361Z,13.95
2018-11-21T22:08:22.672Z,14.47
2018-11-21T22:10:50.770Z,16.42
2018-11-21T22:13:18.276Z,17.50
2018-11-21T22:15:45.396Z,14.13
2018-11-21T22:18:13.414Z,15.75
2018-11-21T22:20:40.582Z,15.10
2018-11-21T22:23:07.681Z,15.93
2018-11-21T22:25:34.597Z,16.77
2018-11-21T22:28:01.908Z,17.65
2018-11-21T22:30:29.098Z,16.75
2018-11-21T22:32:57.115Z,16.60
2018-11-21T22:35:25.643Z,14.00
2018-11-21T22:37:52.546Z,14.68
2018-11-21T22:40:20.248Z,16.30
2018-11-21T22:42:48.378Z,14.83
2018-11-21T22:45:16.523Z,16.67
2018-11-21T22:47:43.531Z,17.27
2018-11-21T22:50:12.210Z,17.02
2018-11-21T22:52:39.126Z,16.02
2018-11-21T22:55:06.328Z,16.60
2018-11-21T22:57:33.343Z,17.05
2018-11-21T23:00:00.971Z,15.58
2018-11-21T23:02:28.242Z,16.95
2018-11-21T23:04:55.627Z,18.10
2018-11-21T23:07:23.653Z,18.85
2018-11-21T23:09:50.454Z,17.20
2018-11-21T23:12:17.260Z,17.90
2018-11-21T23:14:44.677Z,17.27
2018-11-21T23:17:12.204Z,18.37
2018-11-21T23:19:39.102Z,18.15
2018-11-21T23:22:05.964Z,16.25
2018-11-21T23:24:38.963Z,16.93
2018-11-21T23:27:06.751Z,15.23
2018-11-21T23:29:34.313Z,18.20
2018-11-21T23:32:01.240Z,17.60
2018-11-21T23:34:28.789Z,18.25
2018-11-21T23:36:55.652Z,16.35
2018-11-21T23:39:22.885Z,16.32
2018-11-21T23:41:49.825Z,15.55
2018-11-21T23:44:16.672Z,16.65
2018-11-21T23:46:43.922Z,17.12
2018-11-21T23:49:12.572Z,17.32
2018-11-21T23:51:39.789Z,18.77
2018-11-21T23:54:07.048Z,18.65
2018-11-21T23:56:34.293Z,19.48
2018-11-21T23:59:01.717Z,18.00
